Central, Arizona
Current Conditions -  °F | °C
As of 1:51 PM on Tuesday 27 Jan 2015 (Local Time) from KSAD Reporting Station
Clear Clear  
Wind Chill: 69°   Ceiling: Unl
Heat Index: 69°   Visibility: 10mi
Dew Point: 33°   Wind: 5mph
Humidity: 26%   Direction: 230°SW
Pressure: 30.2"   Gusts: NA
Location:  32.87°N, 109.79°W
Report Text: KSAD 272051Z AUTO 23004KT 10SM CLR 21/01 A3020 RMK AO2 SLP196 T02060006 58027
Loading
Personal Weather Stations






























Interactive Weather Map New forecast layout! Learn more

10-Day Weather Forecast

Advertisements
Track Severe Weather on mobile